sensor_id;sensor_type;location;lat;lon;timestamp;temperature;humidity
37322;DHT22;23697;48.684;9.032;2023-05-10T00:02:01;13.30;89.90
37322;DHT22;23697;48.684;9.032;2023-05-10T00:04:28;13.40;90.00
37322;DHT22;23697;48.684;9.032;2023-05-10T00:06:54;13.50;90.00
37322;DHT22;23697;48.684;9.032;2023-05-10T00:09:21;13.40;89.90
37322;DHT22;23697;48.684;9.032;2023-05-10T00:11:48;13.40;89.90
37322;DHT22;23697;48.684;9.032;2023-05-10T00:14:15;13.40;89.90
37322;DHT22;23697;48.684;9.032;2023-05-10T00:16:43;13.50;89.90
37322;DHT22;23697;48.684;9.032;2023-05-10T00:19:10;13.50;89.90
37322;DHT22;23697;48.684;9.032;2023-05-10T00:21:36;13.40;89.90
37322;DHT22;23697;48.684;9.032;2023-05-10T00:24:03;13.40;89.80
37322;DHT22;23697;48.684;9.032;2023-05-10T00:26:30;13.40;89.70
37322;DHT22;23697;48.684;9.032;2023-05-10T00:28:57;13.40;89.50
37322;DHT22;23697;48.684;9.032;2023-05-10T00:31:23;13.40;89.50
37322;DHT22;23697;48.684;9.032;2023-05-10T00:33:52;13.30;89.40
37322;DHT22;23697;48.684;9.032;2023-05-10T00:36:19;13.30;89.10
37322;DHT22;23697;48.684;9.032;2023-05-10T00:38:46;13.10;89.10
37322;DHT22;23697;48.684;9.032;2023-05-10T00:41:12;13.10;89.00
37322;DHT22;23697;48.684;9.032;2023-05-10T00:43:39;13.10;89.10
37322;DHT22;23697;48.684;9.032;2023-05-10T00:46:06;13.10;89.00
37322;DHT22;23697;48.684;9.032;2023-05-10T00:48:32;13.10;89.00
37322;DHT22;23697;48.684;9.032;2023-05-10T00:51:02;13.10;89.00
37322;DHT22;23697;48.684;9.032;2023-05-10T00:53:30;13.10;88.90
37322;DHT22;23697;48.684;9.032;2023-05-10T00:55:57;13.10;88.90
37322;DHT22;23697;48.684;9.032;2023-05-10T00:58:24;13.00;88.80
37322;DHT22;23697;48.684;9.032;2023-05-10T01:00:53;12.90;88.80
37322;DHT22;23697;48.684;9.032;2023-05-10T01:03:21;13.00;88.90
37322;DHT22;23697;48.684;9.032;2023-05-10T01:05:48;12.90;88.90
37322;DHT22;23697;48.684;9.032;2023-05-10T01:08:16;13.00;88.90
37322;DHT22;23697;48.684;9.032;2023-05-10T01:10:43;13.00;88.90
37322;DHT22;23697;48.684;9.032;2023-05-10T01:13:10;13.00;88.90
37322;DHT22;23697;48.684;9.032;2023-05-10T01:15:37;13.00;88.90
37322;DHT22;23697;48.684;9.032;2023-05-10T01:18:05;13.00;88.80
37322;DHT22;23697;48.684;9.032;2023-05-10T01:20:35;13.00;88.70
37322;DHT22;23697;48.684;9.032;2023-05-10T01:25:58;12.90;88.80
37322;DHT22;23697;48.684;9.032;2023-05-10T01:28:39;12.80;88.70
37322;DHT22;23697;48.684;9.032;2023-05-10T01:33:57;12.80;88.80
37322;DHT22;23697;48.684;9.032;2023-05-10T01:36:26;12.80;88.90
37322;DHT22;23697;48.684;9.032;2023-05-10T01:38:57;12.80;88.80
37322;DHT22;23697;48.684;9.032;2023-05-10T01:41:28;12.80;88.90
37322;DHT22;23697;48.684;9.032;2023-05-10T01:43:56;12.80;89.00
37322;DHT22;23697;48.684;9.032;2023-05-10T01:46:25;12.80;89.00
37322;DHT22;23697;48.684;9.032;2023-05-10T01:48:55;12.80;89.00
37322;DHT22;23697;48.684;9.032;2023-05-10T01:51:31;12.70;89.00
37322;DHT22;23697;48.684;9.032;2023-05-10T01:54:03;12.70;89.10
37322;DHT22;23697;48.684;9.032;2023-05-10T01:56:30;12.70;89.10
37322;DHT22;23697;48.684;9.032;2023-05-10T01:58:58;12.60;89.10
37322;DHT22;23697;48.684;9.032;2023-05-10T02:01:26;12.70;89.10
37322;DHT22;23697;48.684;9.032;2023-05-10T02:03:53;12.60;89.10
37322;DHT22;23697;48.684;9.032;2023-05-10T02:06:21;12.70;89.20
37322;DHT22;23697;48.684;9.032;2023-05-10T02:08:50;12.70;89.10
37322;DHT22;23697;48.684;9.032;2023-05-10T02:11:18;12.70;89.10
37322;DHT22;23697;48.684;9.032;2023-05-10T02:13:47;12.60;89.00
37322;DHT22;23697;48.684;9.032;2023-05-10T02:16:14;12.60;88.90
37322;DHT22;23697;48.684;9.032;2023-05-10T02:18:42;12.70;88.90
37322;DHT22;23697;48.684;9.032;2023-05-10T02:21:09;12.60;88.90
37322;DHT22;23697;48.684;9.032;2023-05-10T02:23:36;12.70;88.90
37322;DHT22;23697;48.684;9.032;2023-05-10T02:26:04;12.60;88.90
37322;DHT22;23697;48.684;9.032;2023-05-10T02:28:32;12.60;88.80
37322;DHT22;23697;48.684;9.032;2023-05-10T02:30:59;12.60;88.90
37322;DHT22;23697;48.684;9.032;2023-05-10T02:33:26;12.60;88.90
37322;DHT22;23697;48.684;9.032;2023-05-10T02:35:53;12.60;89.00
37322;DHT22;23697;48.684;9.032;2023-05-10T02:38:20;12.50;89.00
37322;DHT22;23697;48.684;9.032;2023-05-10T02:40:49;12.40;89.00
37322;DHT22;23697;48.684;9.032;2023-05-10T02:43:18;12.40;88.90
37322;DHT22;23697;48.684;9.032;2023-05-10T02:45:46;12.40;89.00
37322;DHT22;23697;48.684;9.032;2023-05-10T02:48:13;12.50;89.10
37322;DHT22;23697;48.684;9.032;2023-05-10T02:50:41;12.50;89.10
37322;DHT22;23697;48.684;9.032;2023-05-10T02:53:15;12.40;89.10
37322;DHT22;23697;48.684;9.032;2023-05-10T02:55:42;12.40;89.00
37322;DHT22;23697;48.684;9.032;2023-05-10T02:58:12;12.40;89.00
37322;DHT22;23697;48.684;9.032;2023-05-10T03:00:40;12.40;89.00
37322;DHT22;23697;48.684;9.032;2023-05-10T03:03:07;12.40;89.10
37322;DHT22;23697;48.684;9.032;2023-05-10T03:05:34;12.50;89.10
37322;DHT22;23697;48.684;9.032;2023-05-10T03:08:00;12.40;89.10
37322;DHT22;23697;48.684;9.032;2023-05-10T03:10:29;12.40;89.10
37322;DHT22;23697;48.684;9.032;2023-05-10T03:13:01;12.40;89.10
37322;DHT22;23697;48.684;9.032;2023-05-10T03:15:32;12.40;89.10
37322;DHT22;23697;48.684;9.032;2023-05-10T03:18:04;12.40;89.10
37322;DHT22;23697;48.684;9.032;2023-05-10T03:20:34;12.30;89.00
37322;DHT22;23697;48.684;9.032;2023-05-10T03:23:02;12.30;89.00
37322;DHT22;23697;48.684;9.032;2023-05-10T03:25:31;12.20;89.00
37322;DHT22;23697;48.684;9.032;2023-05-10T03:27:58;12.30;89.10
37322;DHT22;23697;48.684;9.032;2023-05-10T03:30:27;12.20;89.00
37322;DHT22;23697;48.684;9.032;2023-05-10T03:32:54;12.20;89.10
37322;DHT22;23697;48.684;9.032;2023-05-10T03:35:23;12.20;89.10
37322;DHT22;23697;48.684;9.032;2023-05-10T03:37:50;12.20;89.10
37322;DHT22;23697;48.684;9.032;2023-05-10T03:40:17;12.10;89.00
37322;DHT22;23697;48.684;9.032;2023-05-10T03:42:44;12.10;89.10
37322;DHT22;23697;48.684;9.032;2023-05-10T03:45:10;12.20;89.10
37322;DHT22;23697;48.684;9.032;2023-05-10T03:47:37;12.20;89.20
37322;DHT22;23697;48.684;9.032;2023-05-10T03:50:04;12.10;89.20
37322;DHT22;23697;48.684;9.032;2023-05-10T03:52:32;12.10;89.20
37322;DHT22;23697;48.684;9.032;2023-05-10T03:54:59;12.00;89.20
37322;DHT22;23697;48.684;9.032;2023-05-10T03:57:25;12.10;89.20
37322;DHT22;23697;48.684;9.032;2023-05-10T03:59:55;12.00;89.30
37322;DHT22;23697;48.684;9.032;2023-05-10T04:02:22;11.90;89.40
37322;DHT22;23697;48.684;9.032;2023-05-10T04:04:48;11.90;89.50
37322;DHT22;23697;48.684;9.032;2023-05-10T04:07:15;11.90;89.50
37322;DHT22;23697;48.684;9.032;2023-05-10T04:09:44;11.90;89.50
37322;DHT22;23697;48.684;9.032;2023-05-10T04:12:11;12.00;89.50
37322;DHT22;23697;48.684;9.032;2023-05-10T04:14:38;11.90;89.50
37322;DHT22;23697;48.684;9.032;2023-05-10T04:17:05;11.90;89.50
37322;DHT22;23697;48.684;9.032;2023-05-10T04:19:32;11.80;89.50
37322;DHT22;23697;48.684;9.032;2023-05-10T04:21:59;11.90;89.50
37322;DHT22;23697;48.684;9.032;2023-05-10T04:24:25;11.80;89.60
37322;DHT22;23697;48.684;9.032;2023-05-10T04:26:53;11.90;89.60
37322;DHT22;23697;48.684;9.032;2023-05-10T04:29:20;12.00;89.70
37322;DHT22;23697;48.684;9.032;2023-05-10T04:31:47;11.90;89.60
37322;DHT22;23697;48.684;9.032;2023-05-10T04:34:14;11.90;89.60
37322;DHT22;23697;48.684;9.032;2023-05-10T04:36:40;11.90;89.60
37322;DHT22;23697;48.684;9.032;2023-05-10T04:39:07;12.00;89.70
37322;DHT22;23697;48.684;9.032;2023-05-10T04:41:35;11.90;89.70
37322;DHT22;23697;48.684;9.032;2023-05-10T04:44:03;11.90;89.60
37322;DHT22;23697;48.684;9.032;2023-05-10T04:46:29;11.90;89.70
37322;DHT22;23697;48.684;9.032;2023-05-10T04:48:56;12.00;89.80
37322;DHT22;23697;48.684;9.032;2023-05-10T04:51:23;12.10;89.80
37322;DHT22;23697;48.684;9.032;2023-05-10T04:53:49;12.10;89.80
37322;DHT22;23697;48.684;9.032;2023-05-10T04:56:16;12.00;89.70
37322;DHT22;23697;48.684;9.032;2023-05-10T04:58:43;12.00;89.70
37322;DHT22;23697;48.684;9.032;2023-05-10T05:01:11;12.10;89.70
37322;DHT22;23697;48.684;9.032;2023-05-10T05:03:37;12.10;89.70
37322;DHT22;23697;48.684;9.032;2023-05-10T05:06:05;12.10;89.70
37322;DHT22;23697;48.684;9.032;2023-05-10T05:08:31;12.10;89.70
37322;DHT22;23697;48.684;9.032;2023-05-10T05:10:58;12.20;89.70
37322;DHT22;23697;48.684;9.032;2023-05-10T05:13:25;12.20;89.60
37322;DHT22;23697;48.684;9.032;2023-05-10T05:15:51;12.20;89.60
37322;DHT22;23697;48.684;9.032;2023-05-10T05:18:20;12.30;89.60
37322;DHT22;23697;48.684;9.032;2023-05-10T05:20:46;12.20;89.60
37322;DHT22;23697;48.684;9.032;2023-05-10T05:23:13;12.40;89.60
37322;DHT22;23697;48.684;9.032;2023-05-10T05:25:40;12.40;89.70
37322;DHT22;23697;48.684;9.032;2023-05-10T05:28:07;12.50;89.70
37322;DHT22;23697;48.684;9.032;2023-05-10T05:30:34;12.40;89.60
37322;DHT22;23697;48.684;9.032;2023-05-10T05:33:00;12.50;89.50
37322;DHT22;23697;48.684;9.032;2023-05-10T05:35:28;12.40;89.50
37322;DHT22;23697;48.684;9.032;2023-05-10T05:37:55;12.40;89.40
37322;DHT22;23697;48.684;9.032;2023-05-10T05:40:22;12.50;89.40
37322;DHT22;23697;48.684;9.032;2023-05-10T05:42:48;12.50;89.40
37322;DHT22;23697;48.684;9.032;2023-05-10T05:45:15;12.50;89.40
37322;DHT22;23697;48.684;9.032;2023-05-10T05:47:42;12.50;89.40
37322;DHT22;23697;48.684;9.032;2023-05-10T05:50:09;12.50;89.40
37322;DHT22;23697;48.684;9.032;2023-05-10T05:52:37;12.60;89.40
37322;DHT22;23697;48.684;9.032;2023-05-10T05:55:04;12.70;89.40
37322;DHT22;23697;48.684;9.032;2023-05-10T05:57:31;12.70;89.40
37322;DHT22;23697;48.684;9.032;2023-05-10T05:59:57;12.80;89.30
37322;DHT22;23697;48.684;9.032;2023-05-10T06:02:24;12.80;89.30
37322;DHT22;23697;48.684;9.032;2023-05-10T06:04:51;12.90;89.30
37322;DHT22;23697;48.684;9.032;2023-05-10T06:07:18;12.90;89.20
37322;DHT22;23697;48.684;9.032;2023-05-10T06:09:46;12.90;89.00
37322;DHT22;23697;48.684;9.032;2023-05-10T06:12:12;12.80;88.90
37322;DHT22;23697;48.684;9.032;2023-05-10T06:14:39;12.80;88.80
37322;DHT22;23697;48.684;9.032;2023-05-10T06:17:06;12.70;88.80
37322;DHT22;23697;48.684;9.032;2023-05-10T06:19:32;12.70;88.80
37322;DHT22;23697;48.684;9.032;2023-05-10T06:21:59;12.70;88.70
37322;DHT22;23697;48.684;9.032;2023-05-10T06:24:26;12.80;88.90
37322;DHT22;23697;48.684;9.032;2023-05-10T06:26:54;12.70;88.90
37322;DHT22;23697;48.684;9.032;2023-05-10T06:29:21;12.90;89.00
37322;DHT22;23697;48.684;9.032;2023-05-10T06:31:48;12.90;88.90
37322;DHT22;23697;48.684;9.032;2023-05-10T06:34:14;13.00;88.90
37322;DHT22;23697;48.684;9.032;2023-05-10T06:36:41;13.00;89.00
37322;DHT22;23697;48.684;9.032;2023-05-10T06:39:08;13.00;89.00
37322;DHT22;23697;48.684;9.032;2023-05-10T06:41:36;12.90;88.80
37322;DHT22;23697;48.684;9.032;2023-05-10T06:44:05;12.80;88.70
37322;DHT22;23697;48.684;9.032;2023-05-10T06:46:31;12.90;88.60
37322;DHT22;23697;48.684;9.032;2023-05-10T06:48:58;12.90;88.60
37322;DHT22;23697;48.684;9.032;2023-05-10T06:51:25;12.90;88.60
37322;DHT22;23697;48.684;9.032;2023-05-10T06:53:51;13.00;88.70
37322;DHT22;23697;48.684;9.032;2023-05-10T06:56:18;13.10;88.70
37322;DHT22;23697;48.684;9.032;2023-05-10T06:58:46;13.10;88.60
37322;DHT22;23697;48.684;9.032;2023-05-10T07:01:14;13.10;88.50
37322;DHT22;23697;48.684;9.032;2023-05-10T07:03:41;13.30;88.40
37322;DHT22;23697;48.684;9.032;2023-05-10T07:06:08;13.30;88.20
37322;DHT22;23697;48.684;9.032;2023-05-10T07:08:35;13.20;88.00
37322;DHT22;23697;48.684;9.032;2023-05-10T07:11:02;13.30;88.10
37322;DHT22;23697;48.684;9.032;2023-05-10T07:13:29;13.20;87.50
37322;DHT22;23697;48.684;9.032;2023-05-10T07:15:55;13.20;87.70
37322;DHT22;23697;48.684;9.032;2023-05-10T07:18:23;13.40;87.90
37322;DHT22;23697;48.684;9.032;2023-05-10T07:20:50;13.40;87.90
37322;DHT22;23697;48.684;9.032;2023-05-10T07:23:17;13.60;87.90
37322;DHT22;23697;48.684;9.032;2023-05-10T07:25:44;13.60;87.90
37322;DHT22;23697;48.684;9.032;2023-05-10T07:28:11;13.70;87.70
37322;DHT22;23697;48.684;9.032;2023-05-10T07:30:37;13.70;87.60
37322;DHT22;23697;48.684;9.032;2023-05-10T07:33:04;13.70;87.10
37322;DHT22;23697;48.684;9.032;2023-05-10T07:35:32;13.70;86.80
37322;DHT22;23697;48.684;9.032;2023-05-10T07:37:59;13.80;87.00
37322;DHT22;23697;48.684;9.032;2023-05-10T07:40:26;13.90;87.10
37322;DHT22;23697;48.684;9.032;2023-05-10T07:42:52;13.90;87.00
37322;DHT22;23697;48.684;9.032;2023-05-10T07:45:19;13.90;86.80
37322;DHT22;23697;48.684;9.032;2023-05-10T07:47:46;13.90;86.70
37322;DHT22;23697;48.684;9.032;2023-05-10T07:50:12;13.90;86.50
37322;DHT22;23697;48.684;9.032;2023-05-10T07:52:41;14.00;86.40
37322;DHT22;23697;48.684;9.032;2023-05-10T07:55:08;13.90;86.20
37322;DHT22;23697;48.684;9.032;2023-05-10T07:57:35;14.00;86.40
37322;DHT22;23697;48.684;9.032;2023-05-10T08:00:02;14.00;85.30
37322;DHT22;23697;48.684;9.032;2023-05-10T08:02:29;14.00;85.70
37322;DHT22;23697;48.684;9.032;2023-05-10T08:04:56;14.10;85.80
37322;DHT22;23697;48.684;9.032;2023-05-10T08:07:24;14.20;85.50
37322;DHT22;23697;48.684;9.032;2023-05-10T08:09:52;14.20;85.20
37322;DHT22;23697;48.684;9.032;2023-05-10T08:12:18;14.20;84.40
37322;DHT22;23697;48.684;9.032;2023-05-10T08:14:45;14.20;84.50
37322;DHT22;23697;48.684;9.032;2023-05-10T08:17:12;14.30;84.70
37322;DHT22;23697;48.684;9.032;2023-05-10T08:19:38;14.40;85.00
37322;DHT22;23697;48.684;9.032;2023-05-10T08:22:05;14.50;84.80
37322;DHT22;23697;48.684;9.032;2023-05-10T08:24:32;14.50;84.10
37322;DHT22;23697;48.684;9.032;2023-05-10T08:27:01;14.60;83.90
37322;DHT22;23697;48.684;9.032;2023-05-10T08:29:28;14.60;83.90
37322;DHT22;23697;48.684;9.032;2023-05-10T08:31:54;14.60;83.90
37322;DHT22;23697;48.684;9.032;2023-05-10T08:34:21;14.60;84.20
37322;DHT22;23697;48.684;9.032;2023-05-10T08:36:48;14.70;83.30
37322;DHT22;23697;48.684;9.032;2023-05-10T08:39:15;14.60;82.10
37322;DHT22;23697;48.684;9.032;2023-05-10T08:41:42;14.50;81.40
37322;DHT22;23697;48.684;9.032;2023-05-10T08:44:11;14.50;81.60
37322;DHT22;23697;48.684;9.032;2023-05-10T08:46:38;14.60;81.80
37322;DHT22;23697;48.684;9.032;2023-05-10T08:49:09;14.70;80.60
37322;DHT22;23697;48.684;9.032;2023-05-10T08:51:40;14.70;80.00
37322;DHT22;23697;48.684;9.032;2023-05-10T08:54:10;14.70;80.50
37322;DHT22;23697;48.684;9.032;2023-05-10T08:56:37;14.80;80.70
37322;DHT22;23697;48.684;9.032;2023-05-10T08:59:04;14.80;79.60
37322;DHT22;23697;48.684;9.032;2023-05-10T09:01:32;14.80;80.40
37322;DHT22;23697;48.684;9.032;2023-05-10T09:04:02;14.90;80.60
37322;DHT22;23697;48.684;9.032;2023-05-10T09:06:29;14.90;80.20
37322;DHT22;23697;48.684;9.032;2023-05-10T09:08:57;15.00;79.20
37322;DHT22;23697;48.684;9.032;2023-05-10T09:11:24;14.80;77.70
37322;DHT22;23697;48.684;9.032;2023-05-10T09:13:51;14.70;78.00
37322;DHT22;23697;48.684;9.032;2023-05-10T09:16:18;14.70;77.80
37322;DHT22;23697;48.684;9.032;2023-05-10T09:18:46;14.80;77.50
37322;DHT22;23697;48.684;9.032;2023-05-10T09:21:14;14.80;78.40
37322;DHT22;23697;48.684;9.032;2023-05-10T09:23:42;14.80;76.80
37322;DHT22;23697;48.684;9.032;2023-05-10T09:26:09;14.70;76.20
37322;DHT22;23697;48.684;9.032;2023-05-10T09:28:50;14.60;76.30
37322;DHT22;23697;48.684;9.032;2023-05-10T09:31:46;14.60;77.30
37322;DHT22;23697;48.684;9.032;2023-05-10T09:37:14;14.80;77.70
37322;DHT22;23697;48.684;9.032;2023-05-10T09:39:44;15.00;77.40
37322;DHT22;23697;48.684;9.032;2023-05-10T09:42:11;15.10;76.10
37322;DHT22;23697;48.684;9.032;2023-05-10T09:44:38;15.40;74.10
37322;DHT22;23697;48.684;9.032;2023-05-10T09:47:06;15.50;75.20
37322;DHT22;23697;48.684;9.032;2023-05-10T09:49:38;15.70;74.80
37322;DHT22;23697;48.684;9.032;2023-05-10T09:52:09;15.90;74.90
37322;DHT22;23697;48.684;9.032;2023-05-10T09:54:37;16.10;72.80
37322;DHT22;23697;48.684;9.032;2023-05-10T09:57:04;16.10;71.00
37322;DHT22;23697;48.684;9.032;2023-05-10T09:59:32;16.10;71.50
37322;DHT22;23697;48.684;9.032;2023-05-10T10:02:00;16.30;68.40
37322;DHT22;23697;48.684;9.032;2023-05-10T10:04:26;16.30;70.50
37322;DHT22;23697;48.684;9.032;2023-05-10T10:07:00;16.40;71.30
37322;DHT22;23697;48.684;9.032;2023-05-10T10:09:27;16.50;70.20
37322;DHT22;23697;48.684;9.032;2023-05-10T10:11:55;16.60;71.10
37322;DHT22;23697;48.684;9.032;2023-05-10T10:14:22;16.70;70.60
37322;DHT22;23697;48.684;9.032;2023-05-10T10:16:49;17.00;70.60
37322;DHT22;23697;48.684;9.032;2023-05-10T10:19:15;17.10;68.60
37322;DHT22;23697;48.684;9.032;2023-05-10T10:21:42;17.30;68.80
37322;DHT22;23697;48.684;9.032;2023-05-10T10:24:09;17.40;67.20
37322;DHT22;23697;48.684;9.032;2023-05-10T10:26:35;17.50;68.00
37322;DHT22;23697;48.684;9.032;2023-05-10T10:29:07;17.60;66.80
37322;DHT22;23697;48.684;9.032;2023-05-10T10:31:38;17.60;66.90
37322;DHT22;23697;48.684;9.032;2023-05-10T10:34:06;17.40;66.00
37322;DHT22;23697;48.684;9.032;2023-05-10T10:36:39;17.40;64.70
37322;DHT22;23697;48.684;9.032;2023-05-10T10:39:08;17.40;66.50
37322;DHT22;23697;48.684;9.032;2023-05-10T10:41:36;17.30;65.90
37322;DHT22;23697;48.684;9.032;2023-05-10T10:46:59;17.10;66.30
37322;DHT22;23697;48.684;9.032;2023-05-10T10:49:29;16.60;65.40
37322;DHT22;23697;48.684;9.032;2023-05-10T10:52:15;16.30;66.10
37322;DHT22;23697;48.684;9.032;2023-05-10T10:54:46;15.90;66.00
37322;DHT22;23697;48.684;9.032;2023-05-10T10:57:17;15.40;65.30
37322;DHT22;23697;48.684;9.032;2023-05-10T10:59:44;15.10;66.40
37322;DHT22;23697;48.684;9.032;2023-05-10T11:02:18;14.90;66.90
37322;DHT22;23697;48.684;9.032;2023-05-10T11:07:54;14.60;69.10
37322;DHT22;23697;48.684;9.032;2023-05-10T11:10:21;14.60;70.70
37322;DHT22;23697;48.684;9.032;2023-05-10T11:12:51;14.70;70.90
37322;DHT22;23697;48.684;9.032;2023-05-10T11:15:19;14.70;70.80
37322;DHT22;23697;48.684;9.032;2023-05-10T11:17:49;14.70;71.30
37322;DHT22;23697;48.684;9.032;2023-05-10T11:20:17;14.70;71.90
37322;DHT22;23697;48.684;9.032;2023-05-10T11:22:51;14.90;72.20
37322;DHT22;23697;48.684;9.032;2023-05-10T11:25:18;15.10;69.20
37322;DHT22;23697;48.684;9.032;2023-05-10T11:27:47;15.00;70.20
37322;DHT22;23697;48.684;9.032;2023-05-10T11:30:29;14.90;69.40
37322;DHT22;23697;48.684;9.032;2023-05-10T11:32:59;14.80;70.10
37322;DHT22;23697;48.684;9.032;2023-05-10T11:35:27;14.80;72.60
37322;DHT22;23697;48.684;9.032;2023-05-10T11:37:54;15.00;72.10
37322;DHT22;23697;48.684;9.032;2023-05-10T11:40:21;15.20;71.40
37322;DHT22;23697;48.684;9.032;2023-05-10T11:42:49;15.50;71.30
37322;DHT22;23697;48.684;9.032;2023-05-10T11:45:16;15.60;68.80
37322;DHT22;23697;48.684;9.032;2023-05-10T11:47:43;15.80;70.00
37322;DHT22;23697;48.684;9.032;2023-05-10T11:50:11;16.10;69.20
37322;DHT22;23697;48.684;9.032;2023-05-10T11:52:38;16.20;68.30
37322;DHT22;23697;48.684;9.032;2023-05-10T11:55:05;16.40;69.60
37322;DHT22;23697;48.684;9.032;2023-05-10T11:57:32;16.40;66.20
37322;DHT22;23697;48.684;9.032;2023-05-10T11:59:58;16.40;64.90
37322;DHT22;23697;48.684;9.032;2023-05-10T12:02:25;16.40;66.40
37322;DHT22;23697;48.684;9.032;2023-05-10T12:04:53;16.50;65.90
37322;DHT22;23697;48.684;9.032;2023-05-10T12:07:22;16.70;67.10
37322;DHT22;23697;48.684;9.032;2023-05-10T12:10:02;16.80;65.70
37322;DHT22;23697;48.684;9.032;2023-05-10T12:12:34;16.80;65.10
37322;DHT22;23697;48.684;9.032;2023-05-10T12:15:01;16.60;65.10
37322;DHT22;23697;48.684;9.032;2023-05-10T12:17:28;16.50;65.70
37322;DHT22;23697;48.684;9.032;2023-05-10T12:19:58;16.40;66.60
37322;DHT22;23697;48.684;9.032;2023-05-10T12:22:27;16.30;66.70
37322;DHT22;23697;48.684;9.032;2023-05-10T12:24:54;16.20;65.30
37322;DHT22;23697;48.684;9.032;2023-05-10T12:27:20;16.10;65.60
37322;DHT22;23697;48.684;9.032;2023-05-10T12:29:47;16.10;64.60
37322;DHT22;23697;48.684;9.032;2023-05-10T12:32:14;16.00;64.30
37322;DHT22;23697;48.684;9.032;2023-05-10T12:34:41;16.00;64.60
37322;DHT22;23697;48.684;9.032;2023-05-10T12:37:07;16.10;65.40
37322;DHT22;23697;48.684;9.032;2023-05-10T12:39:46;15.90;64.00
37322;DHT22;23697;48.684;9.032;2023-05-10T12:42:13;15.80;64.70
37322;DHT22;23697;48.684;9.032;2023-05-10T12:44:40;15.80;64.70
37322;DHT22;23697;48.684;9.032;2023-05-10T12:47:07;15.80;66.40
37322;DHT22;23697;48.684;9.032;2023-05-10T12:49:34;15.80;63.80
37322;DHT22;23697;48.684;9.032;2023-05-10T12:52:00;15.90;66.20
37322;DHT22;23697;48.684;9.032;2023-05-10T12:54:27;15.90;64.50
37322;DHT22;23697;48.684;9.032;2023-05-10T12:56:55;16.10;63.70
37322;DHT22;23697;48.684;9.032;2023-05-10T12:59:22;16.20;65.50
37322;DHT22;23697;48.684;9.032;2023-05-10T13:01:48;16.30;65.50
37322;DHT22;23697;48.684;9.032;2023-05-10T13:04:15;16.40;62.60
37322;DHT22;23697;48.684;9.032;2023-05-10T13:06:42;16.40;64.10
37322;DHT22;23697;48.684;9.032;2023-05-10T13:09:09;16.50;64.60
37322;DHT22;23697;48.684;9.032;2023-05-10T13:11:35;16.60;63.40
37322;DHT22;23697;48.684;9.032;2023-05-10T13:14:03;16.60;62.30
37322;DHT22;23697;48.684;9.032;2023-05-10T13:16:30;16.50;60.60
37322;DHT22;23697;48.684;9.032;2023-05-10T13:18:58;16.50;60.50
37322;DHT22;23697;48.684;9.032;2023-05-10T13:21:25;16.50;61.10
37322;DHT22;23697;48.684;9.032;2023-05-10T13:23:52;16.40;58.00
37322;DHT22;23697;48.684;9.032;2023-05-10T13:26:19;16.40;61.00
37322;DHT22;23697;48.684;9.032;2023-05-10T13:28:46;16.40;59.30
37322;DHT22;23697;48.684;9.032;2023-05-10T13:31:15;16.40;58.70
37322;DHT22;23697;48.684;9.032;2023-05-10T13:33:42;16.40;61.30
37322;DHT22;23697;48.684;9.032;2023-05-10T13:36:09;16.40;60.50
37322;DHT22;23697;48.684;9.032;2023-05-10T13:38:35;16.50;60.80
37322;DHT22;23697;48.684;9.032;2023-05-10T13:41:02;16.70;61.70
37322;DHT22;23697;48.684;9.032;2023-05-10T13:43:29;16.80;60.40
37322;DHT22;23697;48.684;9.032;2023-05-10T13:45:56;16.90;60.90
37322;DHT22;23697;48.684;9.032;2023-05-10T13:48:24;16.90;58.80
37322;DHT22;23697;48.684;9.032;2023-05-10T13:50:51;16.90;60.40
37322;DHT22;23697;48.684;9.032;2023-05-10T13:53:18;16.80;58.70
37322;DHT22;23697;48.684;9.032;2023-05-10T13:55:44;16.70;59.50
37322;DHT22;23697;48.684;9.032;2023-05-10T13:58:11;16.70;60.20
37322;DHT22;23697;48.684;9.032;2023-05-10T14:00:38;16.60;60.90
37322;DHT22;23697;48.684;9.032;2023-05-10T14:03:05;16.60;60.60
37322;DHT22;23697;48.684;9.032;2023-05-10T14:05:34;16.60;60.10
37322;DHT22;23697;48.684;9.032;2023-05-10T14:08:00;16.60;60.40
37322;DHT22;23697;48.684;9.032;2023-05-10T14:10:29;16.60;59.40
37322;DHT22;23697;48.684;9.032;2023-05-10T14:13:00;16.60;60.60
37322;DHT22;23697;48.684;9.032;2023-05-10T14:15:28;16.60;59.80
37322;DHT22;23697;48.684;9.032;2023-05-10T14:17:55;16.60;60.90
37322;DHT22;23697;48.684;9.032;2023-05-10T14:20:21;16.70;60.40
37322;DHT22;23697;48.684;9.032;2023-05-10T14:22:49;16.80;62.40
37322;DHT22;23697;48.684;9.032;2023-05-10T14:25:16;16.80;58.50
37322;DHT22;23697;48.684;9.032;2023-05-10T14:27:43;17.00;60.60
37322;DHT22;23697;48.684;9.032;2023-05-10T14:30:11;16.90;59.90
37322;DHT22;23697;48.684;9.032;2023-05-10T14:32:38;16.90;61.90
37322;DHT22;23697;48.684;9.032;2023-05-10T14:35:05;16.90;61.00
37322;DHT22;23697;48.684;9.032;2023-05-10T14:37:32;16.90;61.00
37322;DHT22;23697;48.684;9.032;2023-05-10T14:40:00;16.90;61.30
37322;DHT22;23697;48.684;9.032;2023-05-10T14:42:31;16.90;61.40
37322;DHT22;23697;48.684;9.032;2023-05-10T14:45:00;16.90;61.10
37322;DHT22;23697;48.684;9.032;2023-05-10T14:47:27;16.80;62.20
37322;DHT22;23697;48.684;9.032;2023-05-10T14:49:54;16.90;59.50
37322;DHT22;23697;48.684;9.032;2023-05-10T14:52:20;16.90;60.60
37322;DHT22;23697;48.684;9.032;2023-05-10T14:54:47;16.70;58.60
37322;DHT22;23697;48.684;9.032;2023-05-10T14:57:15;16.80;59.60
37322;DHT22;23697;48.684;9.032;2023-05-10T14:59:42;16.80;58.40
37322;DHT22;23697;48.684;9.032;2023-05-10T15:02:08;16.70;58.00
37322;DHT22;23697;48.684;9.032;2023-05-10T15:04:35;16.60;58.60
37322;DHT22;23697;48.684;9.032;2023-05-10T15:07:02;16.60;59.60
37322;DHT22;23697;48.684;9.032;2023-05-10T15:09:29;16.50;58.00
37322;DHT22;23697;48.684;9.032;2023-05-10T15:11:56;16.50;60.00
37322;DHT22;23697;48.684;9.032;2023-05-10T15:14:24;16.60;60.10
37322;DHT22;23697;48.684;9.032;2023-05-10T15:16:51;16.70;62.00
37322;DHT22;23697;48.684;9.032;2023-05-10T15:19:32;16.70;60.50
37322;DHT22;23697;48.684;9.032;2023-05-10T15:22:13;16.80;61.20
37322;DHT22;23697;48.684;9.032;2023-05-10T15:24:40;16.80;60.50
37322;DHT22;23697;48.684;9.032;2023-05-10T15:27:06;16.80;61.00
37322;DHT22;23697;48.684;9.032;2023-05-10T15:29:35;16.80;60.90
37322;DHT22;23697;48.684;9.032;2023-05-10T15:32:02;16.80;59.50
37322;DHT22;23697;48.684;9.032;2023-05-10T15:34:29;16.90;58.80
37322;DHT22;23697;48.684;9.032;2023-05-10T15:36:56;17.00;60.10
37322;DHT22;23697;48.684;9.032;2023-05-10T15:39:23;16.90;60.70
37322;DHT22;23697;48.684;9.032;2023-05-10T15:41:50;16.90;60.20
37322;DHT22;23697;48.684;9.032;2023-05-10T15:44:17;16.90;61.10
37322;DHT22;23697;48.684;9.032;2023-05-10T15:46:45;17.00;60.70
37322;DHT22;23697;48.684;9.032;2023-05-10T15:49:11;17.00;59.60